createdAt,value
2024-03-20T00:00:34.926Z,45.60
2024-03-20T00:03:01.549Z,45.63
2024-03-20T00:05:28.338Z,45.61
2024-03-20T00:07:56.265Z,45.64
2024-03-20T00:10:23.714Z,45.61
2024-03-20T00:12:50.118Z,45.65
2024-03-20T00:15:16.479Z,45.62
2024-03-20T00:17:42.926Z,45.62
2024-03-20T00:20:09.806Z,45.63
2024-03-20T00:22:36.384Z,45.58
2024-03-20T00:25:02.792Z,45.65
2024-03-20T00:27:29.157Z,45.62
2024-03-20T00:29:55.667Z,45.62
2024-03-20T00:32:22.114Z,45.58
2024-03-20T00:34:48.683Z,45.68
2024-03-20T00:37:15.047Z,45.63
2024-03-20T00:39:41.621Z,45.65
2024-03-20T00:42:08.246Z,45.77
2024-03-20T00:44:37.416Z,45.80
2024-03-20T00:47:05.419Z,45.85
2024-03-20T00:49:32.563Z,45.89
2024-03-20T00:51:59.279Z,45.85
2024-03-20T00:54:26.679Z,45.85
2024-03-20T00:56:53.117Z,45.86
2024-03-20T00:59:21.433Z,45.83
2024-03-20T01:01:48.669Z,45.98
2024-03-20T01:04:17.735Z,45.91
2024-03-20T01:06:44.979Z,45.87
2024-03-20T01:09:11.452Z,45.88
2024-03-20T01:11:37.833Z,46.02
2024-03-20T01:14:04.249Z,45.89
2024-03-20T01:16:30.621Z,45.95
2024-03-20T01:18:57.401Z,45.88
2024-03-20T01:21:23.804Z,45.97
2024-03-20T01:23:50.230Z,45.90
2024-03-20T01:26:16.621Z,45.96
2024-03-20T01:28:43.057Z,45.87
2024-03-20T01:31:09.540Z,45.96
2024-03-20T01:33:35.893Z,45.95
2024-03-20T01:36:02.345Z,45.89
2024-03-20T01:38:28.740Z,45.93
2024-03-20T01:40:55.243Z,45.89
2024-03-20T01:43:21.745Z,45.92
2024-03-20T01:45:48.730Z,45.95
2024-03-20T01:48:15.804Z,46.03
2024-03-20T01:50:42.583Z,45.89
2024-03-20T01:53:09.930Z,45.91
2024-03-20T01:55:36.690Z,45.93
2024-03-20T01:58:03.195Z,45.92
2024-03-20T02:00:32.661Z,45.93
2024-03-20T02:03:03.335Z,45.97
2024-03-20T02:05:30.200Z,45.88
2024-03-20T02:07:56.975Z,45.99
2024-03-20T02:10:23.830Z,45.96
2024-03-20T02:13:02.943Z,45.96
2024-03-20T02:15:29.502Z,45.92
2024-03-20T02:17:56.251Z,45.93
2024-03-20T02:20:22.664Z,45.98
2024-03-20T02:22:49.306Z,46.00
2024-03-20T02:25:18.436Z,45.92
2024-03-20T02:27:45.026Z,45.48
2024-03-20T02:30:13.193Z,45.11
2024-03-20T02:32:40.468Z,45.09
2024-03-20T02:35:07.199Z,45.38
2024-03-20T02:37:33.774Z,45.51
2024-03-20T02:40:00.296Z,45.52
2024-03-20T02:42:26.678Z,45.71
2024-03-20T02:44:53.349Z,45.67
2024-03-20T02:47:19.971Z,45.72
2024-03-20T02:49:51.817Z,45.78
2024-03-20T02:52:19.117Z,45.81
2024-03-20T02:54:45.617Z,45.78
2024-03-20T02:57:12.258Z,45.82
2024-03-20T02:59:38.689Z,45.76
2024-03-20T03:02:05.224Z,45.82
2024-03-20T03:04:31.560Z,45.82
2024-03-20T03:06:58.003Z,45.83
2024-03-20T03:09:25.975Z,45.87
2024-03-20T03:11:52.751Z,45.84
2024-03-20T03:14:19.172Z,45.79
2024-03-20T03:16:45.558Z,45.87
2024-03-20T03:19:11.917Z,45.87
2024-03-20T03:21:38.360Z,45.85
2024-03-20T03:24:05.290Z,45.92
2024-03-20T03:26:34.734Z,45.88
2024-03-20T03:29:01.229Z,45.80
2024-03-20T03:31:28.282Z,45.85
2024-03-20T03:33:54.893Z,45.83
2024-03-20T03:36:21.334Z,45.90
2024-03-20T03:38:47.773Z,45.92
2024-03-20T03:41:17.011Z,45.98
2024-03-20T03:43:43.665Z,45.96
2024-03-20T03:46:10.029Z,45.87
2024-03-20T03:48:36.499Z,45.87
2024-03-20T03:51:04.384Z,45.93
2024-03-20T03:53:31.016Z,45.89
2024-03-20T03:55:57.383Z,45.93
2024-03-20T03:58:23.713Z,46.00
2024-03-20T04:00:50.413Z,45.98
2024-03-20T04:03:16.919Z,45.98
2024-03-20T04:05:45.220Z,45.94
2024-03-20T04:08:11.571Z,45.94
2024-03-20T04:10:38.051Z,45.92
2024-03-20T04:13:04.673Z,45.88
2024-03-20T04:15:31.107Z,45.97
2024-03-20T04:17:57.509Z,45.96
2024-03-20T04:20:24.238Z,45.92
2024-03-20T04:22:50.650Z,45.98
2024-03-20T04:25:17.157Z,45.94
2024-03-20T04:27:43.621Z,46.02
2024-03-20T04:30:13.270Z,45.96
2024-03-20T04:32:40.113Z,45.99
2024-03-20T04:35:06.822Z,45.93
2024-03-20T04:37:33.184Z,45.95
2024-03-20T04:39:59.556Z,45.97
2024-03-20T04:42:25.929Z,45.92
2024-03-20T04:44:52.427Z,45.93
2024-03-20T04:47:18.831Z,45.92
2024-03-20T04:49:45.215Z,46.03
2024-03-20T04:52:11.629Z,45.94
2024-03-20T04:54:37.998Z,45.95
2024-03-20T04:57:04.453Z,45.91
2024-03-20T04:59:30.853Z,45.98
2024-03-20T05:01:57.469Z,46.10
2024-03-20T05:04:23.910Z,45.99
2024-03-20T05:06:50.252Z,45.96
2024-03-20T05:09:16.714Z,46.02
2024-03-20T05:11:43.083Z,46.01
2024-03-20T05:14:09.456Z,45.90
2024-03-20T05:16:36.010Z,45.96
2024-03-20T05:19:02.393Z,46.01
2024-03-20T05:21:29.104Z,45.95
2024-03-20T05:23:55.639Z,46.08
2024-03-20T05:26:22.154Z,45.97
2024-03-20T05:28:48.528Z,45.97
2024-03-20T05:31:31.004Z,45.95
2024-03-20T05:33:57.407Z,46.14
2024-03-20T05:36:24.021Z,46.21
2024-03-20T05:38:50.459Z,46.22
2024-03-20T05:41:16.866Z,46.15
2024-03-20T05:43:43.562Z,46.04
2024-03-20T05:46:13.602Z,46.09
2024-03-20T05:48:40.708Z,46.11
2024-03-20T05:51:09.834Z,46.20
2024-03-20T05:53:36.247Z,46.16
2024-03-20T05:56:02.768Z,46.19
2024-03-20T05:58:29.324Z,46.20
2024-03-20T06:00:55.717Z,45.98
2024-03-20T06:03:22.132Z,45.95
2024-03-20T06:05:48.624Z,46.10
2024-03-20T06:08:15.084Z,46.10
2024-03-20T06:10:41.509Z,45.89
2024-03-20T06:13:07.923Z,45.96
2024-03-20T06:15:35.464Z,45.93
2024-03-20T06:18:01.857Z,45.98
2024-03-20T06:20:28.239Z,45.92
2024-03-20T06:22:54.647Z,45.90
2024-03-20T06:25:21.076Z,46.02
2024-03-20T06:27:47.446Z,45.98
2024-03-20T06:30:16.584Z,45.94
2024-03-20T06:32:43.260Z,45.94
2024-03-20T06:35:09.733Z,45.96
2024-03-20T06:37:36.618Z,45.95
2024-03-20T06:40:04.746Z,45.94
2024-03-20T06:42:31.232Z,46.25
2024-03-20T06:44:57.641Z,46.05
2024-03-20T06:47:26.647Z,46.06
2024-03-20T06:49:53.119Z,46.13
2024-03-20T06:52:24.884Z,46.24
2024-03-20T06:54:53.554Z,46.26
2024-03-20T06:57:20.005Z,46.33
2024-03-20T06:59:46.774Z,46.22
2024-03-20T07:02:13.978Z,46.36
2024-03-20T07:04:40.557Z,46.38
2024-03-20T07:07:07.039Z,46.31
2024-03-20T07:09:33.779Z,46.34
2024-03-20T07:12:00.561Z,46.28
2024-03-20T07:14:28.388Z,46.33
2024-03-20T07:16:54.840Z,46.25
2024-03-20T07:19:21.402Z,46.26
2024-03-20T07:21:47.771Z,46.33
2024-03-20T07:24:14.377Z,46.36
2024-03-20T07:26:40.766Z,46.20
2024-03-20T07:29:07.659Z,46.28
2024-03-20T07:31:34.648Z,46.26
2024-03-20T07:34:01.617Z,46.13
2024-03-20T07:36:28.501Z,46.11
2024-03-20T07:38:56.528Z,46.10
2024-03-20T07:41:23.530Z,46.01
2024-03-20T07:43:50.325Z,45.93
2024-03-20T07:46:17.235Z,45.65
2024-03-20T07:48:47.064Z,45.34
2024-03-20T07:51:18.065Z,45.12
2024-03-20T07:53:45.554Z,45.13
2024-03-20T07:56:15.898Z,45.20
2024-03-20T07:58:43.354Z,46.26
2024-03-20T08:01:12.548Z,46.58
2024-03-20T08:03:40.307Z,46.84
2024-03-20T08:06:06.758Z,46.37
2024-03-20T08:08:33.290Z,46.04
2024-03-20T08:10:59.756Z,46.07
2024-03-20T08:13:26.165Z,45.97
2024-03-20T08:15:52.889Z,45.99
2024-03-20T08:18:19.270Z,45.96
2024-03-20T08:20:45.766Z,46.02
2024-03-20T08:23:12.181Z,46.14
2024-03-20T08:25:38.662Z,46.02
2024-03-20T08:28:05.844Z,46.16
2024-03-20T08:30:32.310Z,46.17
2024-03-20T08:32:58.943Z,46.22
2024-03-20T08:35:25.631Z,46.13
2024-03-20T08:37:52.116Z,46.06
2024-03-20T08:40:18.579Z,45.69
2024-03-20T08:42:45.926Z,45.49
2024-03-20T08:45:12.313Z,45.39
2024-03-20T08:47:38.811Z,45.29
2024-03-20T08:50:05.678Z,45.21
2024-03-20T08:52:32.828Z,45.14
2024-03-20T08:54:59.296Z,45.15
2024-03-20T08:57:25.739Z,44.81
2024-03-20T08:59:52.088Z,44.84
2024-03-20T09:02:18.464Z,44.86
2024-03-20T09:04:44.832Z,44.79
2024-03-20T09:07:11.473Z,44.83
2024-03-20T09:09:38.240Z,46.03
2024-03-20T09:12:05.378Z,46.74
2024-03-20T09:14:35.004Z,46.64
2024-03-20T09:17:01.728Z,46.31
2024-03-20T09:19:28.172Z,46.21
2024-03-20T09:21:55.918Z,46.15
2024-03-20T09:24:24.879Z,46.03
2024-03-20T09:26:52.515Z,45.97
2024-03-20T09:29:19.582Z,45.89
2024-03-20T09:31:46.096Z,45.75
2024-03-20T09:34:12.493Z,45.72
2024-03-20T09:36:39.467Z,45.81
2024-03-20T09:39:06.002Z,45.73
2024-03-20T09:41:36.285Z,45.67
2024-03-20T09:44:02.773Z,45.63
2024-03-20T09:46:29.575Z,45.42
2024-03-20T09:48:56.048Z,45.74
2024-03-20T09:51:22.421Z,47.00
2024-03-20T09:53:52.777Z,46.95
2024-03-20T09:56:21.906Z,46.44
2024-03-20T09:58:49.041Z,46.42
2024-03-20T10:01:18.491Z,46.89
2024-03-20T10:03:45.032Z,46.76
2024-03-20T10:06:12.027Z,46.73
2024-03-20T10:08:40.470Z,46.74
2024-03-20T10:11:08.925Z,46.80
2024-03-20T10:13:35.837Z,46.65
2024-03-20T10:16:15.479Z,46.63
2024-03-20T10:18:49.082Z,47.34
2024-03-20T10:21:15.479Z,47.01
2024-03-20T10:23:42.952Z,46.34
2024-03-20T10:26:15.985Z,45.91
2024-03-20T10:28:43.197Z,45.76
2024-03-20T10:31:16.780Z,45.44
2024-03-20T10:33:50.266Z,45.06
2024-03-20T10:36:18.899Z,45.14
2024-03-20T10:38:45.459Z,44.86
2024-03-20T10:41:15.096Z,44.65
2024-03-20T10:43:41.481Z,44.43
2024-03-20T10:46:17.816Z,44.40
2024-03-20T10:48:44.255Z,44.20
2024-03-20T10:51:13.464Z,44.12
2024-03-20T10:53:39.838Z,44.35
2024-03-20T10:56:06.445Z,44.11
2024-03-20T10:58:34.756Z,44.04
2024-03-20T11:01:01.215Z,43.94
2024-03-20T11:03:49.848Z,43.88
2024-03-20T11:06:31.989Z,43.60
2024-03-20T11:08:59.605Z,43.50
2024-03-20T11:11:29.094Z,43.58
2024-03-20T11:13:58.629Z,43.42
2024-03-20T11:16:25.032Z,43.41
2024-03-20T11:18:54.848Z,43.51
2024-03-20T11:21:22.219Z,43.37
2024-03-20T11:23:48.677Z,46.16
2024-03-20T11:26:15.100Z,46.44
2024-03-20T11:28:50.592Z,46.11
2024-03-20T11:31:17.467Z,46.01
2024-03-20T11:33:44.208Z,45.82
2024-03-20T11:36:14.688Z,44.94
2024-03-20T11:38:41.323Z,44.45
2024-03-20T11:41:10.413Z,44.49
2024-03-20T11:43:36.957Z,44.02
2024-03-20T11:46:03.431Z,43.81
2024-03-20T11:48:29.827Z,44.63
2024-03-20T11:50:56.903Z,44.68
2024-03-20T11:53:25.076Z,45.13
2024-03-20T11:55:51.916Z,45.22
2024-03-20T11:58:19.550Z,45.30
2024-03-20T12:00:45.964Z,45.48
2024-03-20T12:03:22.819Z,45.48
2024-03-20T12:05:50.202Z,44.92
2024-03-20T12:08:18.570Z,44.70
2024-03-20T12:10:44.976Z,44.72
2024-03-20T12:13:13.320Z,44.78
2024-03-20T12:15:40.724Z,44.78
2024-03-20T12:18:07.298Z,44.68
2024-03-20T12:20:34.645Z,44.69
2024-03-20T12:23:04.694Z,44.73
2024-03-20T12:25:31.281Z,44.70
2024-03-20T12:27:57.622Z,44.79
2024-03-20T12:30:25.595Z,44.76
2024-03-20T12:32:51.935Z,44.70
2024-03-20T12:35:18.468Z,44.75
2024-03-20T12:37:45.158Z,44.79
2024-03-20T12:40:13.290Z,44.64
2024-03-20T12:42:40.527Z,44.74
2024-03-20T12:45:07.326Z,44.78
2024-03-20T12:47:33.761Z,44.85
2024-03-20T12:50:00.244Z,44.76
2024-03-20T12:52:29.717Z,44.64
2024-03-20T12:54:56.357Z,44.38
2024-03-20T12:57:23.262Z,44.13
2024-03-20T12:59:52.467Z,43.94
2024-03-20T13:02:19.331Z,43.92
2024-03-20T13:04:45.714Z,44.10
2024-03-20T13:07:15.672Z,44.34
2024-03-20T13:09:42.172Z,44.28
2024-03-20T13:12:12.068Z,44.41
2024-03-20T13:14:38.661Z,44.43
2024-03-20T13:17:05.849Z,44.55
2024-03-20T13:19:33.453Z,44.62
2024-03-20T13:22:04.258Z,44.60
2024-03-20T13:24:30.711Z,44.74
2024-03-20T13:26:57.110Z,44.73
2024-03-20T13:29:28.978Z,44.75
2024-03-20T13:31:59.072Z,44.64
2024-03-20T13:34:27.133Z,44.69
2024-03-20T13:36:56.454Z,44.69
2024-03-20T13:39:45.276Z,44.65
2024-03-20T13:42:20.972Z,44.68
2024-03-20T13:44:47.428Z,44.65
2024-03-20T13:47:13.814Z,44.80
2024-03-20T13:49:40.212Z,44.91
2024-03-20T13:52:10.164Z,44.84
2024-03-20T13:54:36.525Z,44.80
2024-03-20T13:57:02.971Z,44.96
2024-03-20T13:59:29.367Z,44.78
2024-03-20T14:01:56.884Z,44.94
2024-03-20T14:04:23.470Z,44.91
2024-03-20T14:06:49.836Z,44.90
2024-03-20T14:09:16.218Z,44.83
2024-03-20T14:11:42.596Z,44.70
2024-03-20T14:14:08.990Z,44.77
2024-03-20T14:16:35.336Z,44.80
2024-03-20T14:19:01.804Z,44.76
2024-03-20T14:21:28.236Z,44.90
2024-03-20T14:23:55.491Z,44.92
2024-03-20T14:26:22.968Z,44.89
2024-03-20T14:29:11.922Z,44.82
2024-03-20T14:31:38.543Z,44.96
2024-03-20T14:34:04.921Z,44.96
2024-03-20T14:36:32.232Z,44.94
2024-03-20T14:38:58.775Z,44.76
2024-03-20T14:41:25.157Z,44.72
2024-03-20T14:43:52.347Z,44.90
2024-03-20T14:46:20.905Z,44.92
2024-03-20T14:48:48.809Z,44.84
2024-03-20T14:51:24.321Z,44.91
2024-03-20T14:53:52.900Z,44.92
2024-03-20T14:56:22.472Z,45.04
2024-03-20T14:58:51.193Z,45.06
2024-03-20T15:01:18.945Z,45.07
2024-03-20T15:03:45.467Z,45.13
2024-03-20T15:06:15.856Z,45.08
2024-03-20T15:08:42.310Z,45.08
2024-03-20T15:11:14.410Z,45.06
2024-03-20T15:13:41.460Z,45.03
2024-03-20T15:16:16.338Z,45.56
2024-03-20T15:18:43.360Z,46.68
2024-03-20T15:21:17.001Z,46.50
2024-03-20T15:23:44.115Z,46.30
2024-03-20T15:26:11.207Z,46.07
2024-03-20T15:28:38.313Z,45.67
2024-03-20T15:31:06.369Z,44.99
2024-03-20T15:33:32.757Z,44.49
2024-03-20T15:35:59.263Z,44.16
2024-03-20T15:38:25.914Z,43.99
2024-03-20T15:40:53.595Z,43.99
2024-03-20T15:43:20.092Z,44.08
2024-03-20T15:45:46.504Z,43.96
2024-03-20T15:48:14.535Z,44.22
2024-03-20T15:50:41.050Z,45.99
2024-03-20T15:53:13.641Z,46.14
2024-03-20T15:55:41.218Z,45.87
2024-03-20T15:58:10.699Z,45.54
2024-03-20T16:00:40.823Z,45.42
2024-03-20T16:03:08.244Z,45.38
2024-03-20T16:05:34.647Z,45.32
2024-03-20T16:08:03.038Z,45.10
2024-03-20T16:10:29.476Z,45.05
2024-03-20T16:12:56.136Z,44.86
2024-03-20T16:15:22.843Z,44.71
2024-03-20T16:17:49.221Z,44.65
2024-03-20T16:20:18.416Z,44.49
2024-03-20T16:22:45.923Z,44.55
2024-03-20T16:25:12.734Z,44.44
2024-03-20T16:27:45.528Z,44.50
2024-03-20T16:30:24.543Z,44.52
2024-03-20T16:32:51.271Z,44.44
2024-03-20T16:35:18.816Z,44.55
2024-03-20T16:37:45.527Z,44.39
2024-03-20T16:40:13.393Z,44.41
2024-03-20T16:42:42.827Z,44.37
2024-03-20T16:45:11.099Z,44.32
2024-03-20T16:47:40.649Z,44.24
2024-03-20T16:50:07.563Z,44.36
2024-03-20T16:52:34.229Z,44.32
2024-03-20T16:55:00.630Z,44.35
2024-03-20T16:57:27.155Z,44.26
2024-03-20T16:59:58.094Z,44.25
2024-03-20T17:02:26.212Z,44.32
2024-03-20T17:04:55.909Z,44.20
2024-03-20T17:07:23.103Z,44.17
2024-03-20T17:09:49.529Z,44.08
2024-03-20T17:12:16.290Z,44.07
2024-03-20T17:14:47.043Z,44.23
2024-03-20T17:17:13.820Z,44.29
2024-03-20T17:19:40.336Z,44.53
2024-03-20T17:22:12.010Z,44.52
2024-03-20T17:24:38.432Z,44.76
2024-03-20T17:27:05.266Z,44.89
2024-03-20T17:29:32.868Z,45.06
2024-03-20T17:32:01.112Z,45.13
2024-03-20T17:34:28.784Z,45.15
2024-03-20T17:36:55.216Z,45.27
2024-03-20T17:39:22.426Z,45.26
2024-03-20T17:41:52.862Z,45.18
2024-03-20T17:44:19.930Z,45.31
2024-03-20T17:46:48.568Z,45.48
2024-03-20T17:49:15.899Z,45.42
2024-03-20T17:51:42.356Z,45.45
2024-03-20T17:54:08.871Z,45.55
2024-03-20T17:56:35.256Z,45.59
2024-03-20T17:59:01.836Z,45.50
2024-03-20T18:01:29.889Z,45.49
2024-03-20T18:03:56.553Z,45.02
2024-03-20T18:06:23.886Z,45.17
2024-03-20T18:08:50.360Z,45.52
2024-03-20T18:11:17.424Z,45.54
2024-03-20T18:13:44.132Z,45.41
2024-03-20T18:16:10.657Z,45.47
2024-03-20T18:18:40.249Z,45.51
2024-03-20T18:21:06.593Z,45.49
2024-03-20T18:23:33.491Z,45.60
2024-03-20T18:26:00.546Z,45.49
2024-03-20T18:28:27.572Z,45.92
2024-03-20T18:30:54.810Z,46.09
2024-03-20T18:33:21.197Z,45.64
2024-03-20T18:35:47.703Z,45.70
2024-03-20T18:38:14.798Z,45.79
2024-03-20T18:40:41.973Z,45.70
2024-03-20T18:43:08.520Z,45.43
2024-03-20T18:45:35.519Z,45.06
2024-03-20T18:48:02.230Z,45.24
2024-03-20T18:50:29.360Z,45.58
2024-03-20T18:52:55.744Z,45.59
2024-03-20T18:55:22.190Z,45.58
2024-03-20T18:57:48.702Z,45.61
2024-03-20T19:00:24.402Z,45.70
2024-03-20T19:02:53.021Z,45.71
2024-03-20T19:05:24.293Z,45.71
2024-03-20T19:07:50.739Z,45.74
2024-03-20T19:10:17.097Z,45.78
2024-03-20T19:12:43.571Z,45.67
2024-03-20T19:15:10.287Z,45.64
2024-03-20T19:17:36.676Z,45.79
2024-03-20T19:20:08.201Z,45.75
2024-03-20T19:22:34.909Z,45.62
2024-03-20T19:25:01.531Z,45.34
2024-03-20T19:27:28.000Z,45.47
2024-03-20T19:29:55.069Z,45.60
2024-03-20T19:32:21.695Z,45.64
2024-03-20T19:34:48.074Z,45.60
2024-03-20T19:37:14.967Z,46.09
2024-03-20T19:39:44.287Z,46.85
2024-03-20T19:42:17.896Z,46.71
2024-03-20T19:44:50.379Z,46.72
2024-03-20T19:47:17.767Z,46.77
2024-03-20T19:49:45.131Z,46.52
2024-03-20T19:52:11.609Z,46.43
2024-03-20T19:54:39.922Z,46.50
2024-03-20T19:57:07.535Z,46.36
2024-03-20T19:59:34.043Z,46.45
2024-03-20T20:02:00.488Z,46.43
2024-03-20T20:04:26.974Z,46.47
2024-03-20T20:06:57.437Z,46.43
2024-03-20T20:09:25.198Z,46.43
2024-03-20T20:11:51.631Z,46.45
2024-03-20T20:14:18.055Z,46.40
2024-03-20T20:16:44.555Z,46.58
2024-03-20T20:19:11.023Z,45.99
2024-03-20T20:21:37.479Z,46.02
2024-03-20T20:24:04.085Z,45.97
2024-03-20T20:26:30.509Z,46.12
2024-03-20T20:28:58.113Z,46.14
2024-03-20T20:31:28.426Z,46.27
2024-03-20T20:33:55.311Z,46.25
2024-03-20T20:36:22.078Z,46.33
2024-03-20T20:38:48.486Z,46.30
2024-03-20T20:41:14.932Z,46.49
2024-03-20T20:43:41.376Z,46.34
2024-03-20T20:46:10.608Z,46.44
2024-03-20T20:48:37.934Z,46.42
2024-03-20T20:51:05.544Z,46.51
2024-03-20T20:53:31.990Z,46.58
2024-03-20T20:55:58.393Z,46.57
2024-03-20T20:58:27.591Z,46.48
2024-03-20T21:00:54.078Z,46.51
2024-03-20T21:03:39.055Z,46.58
2024-03-20T21:06:24.664Z,46.52
2024-03-20T21:09:09.726Z,46.48
2024-03-20T21:11:54.780Z,46.61
2024-03-20T21:14:39.923Z,46.54
2024-03-20T21:17:24.927Z,46.59
2024-03-20T21:19:55.048Z,46.61
2024-03-20T21:22:21.577Z,46.63
2024-03-20T21:24:48.958Z,46.51
2024-03-20T21:27:16.054Z,46.58
2024-03-20T21:29:45.476Z,46.63
2024-03-20T21:32:11.851Z,46.62
2024-03-20T21:34:38.251Z,46.68
2024-03-20T21:37:09.218Z,46.48
2024-03-20T21:39:43.645Z,46.37
2024-03-20T21:42:13.206Z,46.39
2024-03-20T21:44:41.141Z,45.91
2024-03-20T21:47:10.916Z,45.77
2024-03-20T21:49:37.578Z,46.03
2024-03-20T21:52:05.124Z,46.19
2024-03-20T21:54:32.197Z,46.43
2024-03-20T21:56:58.619Z,46.39
2024-03-20T21:59:25.304Z,46.38
2024-03-20T22:01:51.727Z,46.49
2024-03-20T22:04:18.731Z,46.48
2024-03-20T22:06:45.780Z,46.40
2024-03-20T22:11:46.079Z,46.61
2024-03-20T22:14:14.905Z,46.69
2024-03-20T22:16:45.268Z,46.61
2024-03-20T22:19:12.246Z,46.83
2024-03-20T22:21:39.108Z,46.75
2024-03-20T22:24:05.834Z,46.76
2024-03-20T22:26:32.264Z,46.85
2024-03-20T22:28:58.687Z,46.82
2024-03-20T22:31:25.215Z,46.93
2024-03-20T22:33:55.744Z,46.76
2024-03-20T22:36:22.169Z,46.85
2024-03-20T22:38:48.900Z,46.96
2024-03-20T22:41:15.753Z,46.92
2024-03-20T22:43:55.706Z,46.96
2024-03-20T22:46:25.695Z,47.04
2024-03-20T22:48:52.844Z,47.02
2024-03-20T22:51:19.860Z,47.05
2024-03-20T22:53:46.684Z,46.99
2024-03-20T22:56:13.130Z,46.92
2024-03-20T22:58:39.542Z,46.96
2024-03-20T23:01:05.971Z,47.05
2024-03-20T23:03:32.482Z,46.91
2024-03-20T23:06:00.931Z,46.97
2024-03-20T23:08:30.841Z,47.04
2024-03-20T23:10:58.105Z,46.90
2024-03-20T23:13:24.803Z,46.93
2024-03-20T23:15:51.181Z,46.97
2024-03-20T23:18:17.745Z,47.01
2024-03-20T23:20:44.701Z,47.02
2024-03-20T23:23:11.288Z,46.96
2024-03-20T23:25:39.059Z,46.99
2024-03-20T23:28:06.352Z,46.97
2024-03-20T23:30:32.738Z,47.00
2024-03-20T23:33:00.714Z,46.97
2024-03-20T23:35:27.196Z,47.10
2024-03-20T23:37:53.582Z,47.09
2024-03-20T23:40:21.232Z,46.91
2024-03-20T23:42:47.732Z,47.04
2024-03-20T23:45:15.837Z,46.87
2024-03-20T23:47:43.096Z,47.06
2024-03-20T23:50:09.894Z,46.97
2024-03-20T23:52:37.007Z,46.98
2024-03-20T23:55:03.794Z,47.00
2024-03-20T23:57:30.191Z,46.96
2024-03-20T23:59:56.692Z,46.39
